sensor_id;sensor_type;location;lat;lon;timestamp;pressure;altitude;pressure_sealevel;temperature;humidity
11468;BME280;5790;42.762;23.430;2024-01-27T00:02:03;74997.44;;;-142.66;83.90
11468;BME280;5790;42.762;23.430;2024-01-27T00:04:30;74985.19;;;-142.66;83.36
11468;BME280;5790;42.762;23.430;2024-01-27T00:06:59;74972.94;;;-142.66;83.22
11468;BME280;5790;42.762;23.430;2024-01-27T00:09:26;74966.81;;;-142.66;82.38
11468;BME280;5790;42.762;23.430;2024-01-27T00:11:53;74958.63;;;-142.66;82.45
11468;BME280;5790;42.762;23.430;2024-01-27T00:14:20;74962.72;;;-142.66;82.27
11468;BME280;5790;42.762;23.430;2024-01-27T00:16:47;74962.72;;;-142.66;82.03
11468;BME280;5790;42.762;23.430;2024-01-27T00:19:15;74942.28;;;-142.66;82.25
11468;BME280;5790;42.762;23.430;2024-01-27T00:21:42;74948.41;;;-142.66;82.56
11468;BME280;5790;42.762;23.430;2024-01-27T00:24:10;74952.50;;;-142.66;82.21
11468;BME280;5790;42.762;23.430;2024-01-27T00:26:37;74960.69;;;-142.66;82.05
11468;BME280;5790;42.762;23.430;2024-01-27T00:29:05;74966.81;;;-142.66;82.48
11468;BME280;5790;42.762;23.430;2024-01-27T00:31:32;74964.75;;;-142.66;82.37
11468;BME280;5790;42.762;23.430;2024-01-27T00:33:59;74974.97;;;-142.66;82.64
11468;BME280;5790;42.762;23.430;2024-01-27T00:36:27;74966.81;;;-142.66;82.32
11468;BME280;5790;42.762;23.430;2024-01-27T00:38:54;74966.81;;;-142.66;82.40
11468;BME280;5790;42.762;23.430;2024-01-27T00:41:22;74960.69;;;-142.66;82.40
11468;BME280;5790;42.762;23.430;2024-01-27T00:43:49;74950.47;;;-142.66;82.80
11468;BME280;5790;42.762;23.430;2024-01-27T00:46:16;74952.50;;;-142.66;82.68
11468;BME280;5790;42.762;23.430;2024-01-27T00:48:44;74940.25;;;-142.66;82.65
11468;BME280;5790;42.762;23.430;2024-01-27T00:51:11;74938.22;;;-142.66;82.54
11468;BME280;5790;42.762;23.430;2024-01-27T00:53:38;74948.41;;;-142.66;82.61
11468;BME280;5790;42.762;23.430;2024-01-27T00:56:05;74942.28;;;-142.66;82.64
11468;BME280;5790;42.762;23.430;2024-01-27T00:58:34;74938.22;;;-142.66;82.50
11468;BME280;5790;42.762;23.430;2024-01-27T01:01:01;74928.00;;;-142.66;82.74
11468;BME280;5790;42.762;23.430;2024-01-27T01:03:29;74938.22;;;-142.66;82.97
11468;BME280;5790;42.762;23.430;2024-01-27T01:05:56;74925.97;;;-142.66;83.31
11468;BME280;5790;42.762;23.430;2024-01-27T01:08:23;74917.78;;;-142.66;83.38
11468;BME280;5790;42.762;23.430;2024-01-27T01:10:49;74940.25;;;-142.66;82.55
11468;BME280;5790;42.762;23.430;2024-01-27T01:13:16;74972.94;;;-142.66;82.95
11468;BME280;5790;42.762;23.430;2024-01-27T01:15:45;75009.69;;;-142.66;83.78
11468;BME280;5790;42.762;23.430;2024-01-27T01:18:12;75013.78;;;-142.66;85.06
11468;BME280;5790;42.762;23.430;2024-01-27T01:20:39;75017.84;;;-142.66;85.28
11468;BME280;5790;42.762;23.430;2024-01-27T01:23:06;75024.00;;;-142.66;85.83
11468;BME280;5790;42.762;23.430;2024-01-27T01:25:33;75030.13;;;-142.66;86.01
11468;BME280;5790;42.762;23.430;2024-01-27T01:28:01;75030.13;;;-142.66;86.27
11468;BME280;5790;42.762;23.430;2024-01-27T01:30:29;75019.91;;;-142.66;86.68
11468;BME280;5790;42.762;23.430;2024-01-27T01:32:57;75024.00;;;-142.66;86.67
11468;BME280;5790;42.762;23.430;2024-01-27T01:35:24;75011.72;;;-142.66;86.15
11468;BME280;5790;42.762;23.430;2024-01-27T01:37:51;75011.72;;;-142.66;86.08
11468;BME280;5790;42.762;23.430;2024-01-27T01:40:18;75001.53;;;-142.66;86.33
11468;BME280;5790;42.762;23.430;2024-01-27T01:42:50;74995.41;;;-142.66;86.37
11468;BME280;5790;42.762;23.430;2024-01-27T01:45:18;74991.31;;;-142.66;86.79
11468;BME280;5790;42.762;23.430;2024-01-27T01:47:46;74979.06;;;-142.66;86.37
11468;BME280;5790;42.762;23.430;2024-01-27T01:50:14;74987.22;;;-142.66;86.12
11468;BME280;5790;42.762;23.430;2024-01-27T01:52:42;74981.09;;;-142.66;86.42
11468;BME280;5790;42.762;23.430;2024-01-27T01:55:09;74972.94;;;-142.66;86.51
11468;BME280;5790;42.762;23.430;2024-01-27T01:57:36;74960.69;;;-142.66;86.13
11468;BME280;5790;42.762;23.430;2024-01-27T02:00:04;74952.50;;;-142.66;85.91
11468;BME280;5790;42.762;23.430;2024-01-27T02:02:32;74936.16;;;-142.66;85.99
11468;BME280;5790;42.762;23.430;2024-01-27T02:04:59;74923.91;;;-142.66;86.36
11468;BME280;5790;42.762;23.430;2024-01-27T02:07:28;74901.44;;;-142.66;86.29
11468;BME280;5790;42.762;23.430;2024-01-27T02:09:56;74883.06;;;-142.66;86.40
11468;BME280;5790;42.762;23.430;2024-01-27T02:12:23;74885.09;;;-142.66;85.96
11468;BME280;5790;42.762;23.430;2024-01-27T02:14:50;74887.16;;;-142.66;86.04
11468;BME280;5790;42.762;23.430;2024-01-27T02:17:17;74876.94;;;-142.66;85.76
11468;BME280;5790;42.762;23.430;2024-01-27T02:19:44;74893.28;;;-142.66;86.26
11468;BME280;5790;42.762;23.430;2024-01-27T02:22:11;74891.25;;;-142.66;86.51
11468;BME280;5790;42.762;23.430;2024-01-27T02:24:40;74901.44;;;-142.66;86.67
11468;BME280;5790;42.762;23.430;2024-01-27T02:27:07;74897.38;;;-142.66;87.35
11468;BME280;5790;42.762;23.430;2024-01-27T02:29:34;74885.09;;;-142.66;88.09
11468;BME280;5790;42.762;23.430;2024-01-27T02:32:01;74876.94;;;-142.66;88.05
11468;BME280;5790;42.762;23.430;2024-01-27T02:34:28;74866.72;;;-142.66;88.20
11468;BME280;5790;42.762;23.430;2024-01-27T02:36:55;74854.47;;;-142.66;88.43
11468;BME280;5790;42.762;23.430;2024-01-27T02:39:23;74854.47;;;-142.66;88.85
11468;BME280;5790;42.762;23.430;2024-01-27T02:41:51;74840.19;;;-142.66;89.26
11468;BME280;5790;42.762;23.430;2024-01-27T02:44:18;74829.97;;;-142.66;89.68
11468;BME280;5790;42.762;23.430;2024-01-27T02:46:45;74809.53;;;-142.66;89.60
11468;BME280;5790;42.762;23.430;2024-01-27T02:49:12;74811.59;;;-142.66;89.82
11468;BME280;5790;42.762;23.430;2024-01-27T02:51:40;74809.53;;;-142.66;89.71
11468;BME280;5790;42.762;23.430;2024-01-27T02:54:07;74801.38;;;-142.66;89.85
11468;BME280;5790;42.762;23.430;2024-01-27T02:56:34;74787.09;;;-142.66;89.37
11468;BME280;5790;42.762;23.430;2024-01-27T02:59:02;74780.97;;;-142.66;89.09
11468;BME280;5790;42.762;23.430;2024-01-27T03:01:29;74776.88;;;-142.66;88.71
11468;BME280;5790;42.762;23.430;2024-01-27T03:03:57;74780.97;;;-142.66;88.81
11468;BME280;5790;42.762;23.430;2024-01-27T03:06:24;74774.84;;;-142.66;88.68
11468;BME280;5790;42.762;23.430;2024-01-27T03:08:51;74772.78;;;-142.66;88.43
11468;BME280;5790;42.762;23.430;2024-01-27T03:11:18;74774.84;;;-142.66;88.97
11468;BME280;5790;42.762;23.430;2024-01-27T03:13:45;74776.88;;;-142.66;89.04
11468;BME280;5790;42.762;23.430;2024-01-27T03:16:14;74766.66;;;-142.66;88.96
11468;BME280;5790;42.762;23.430;2024-01-27T03:18:43;74766.66;;;-142.66;88.94
11468;BME280;5790;42.762;23.430;2024-01-27T03:21:10;74772.78;;;-142.66;89.05
11468;BME280;5790;42.762;23.430;2024-01-27T03:23:37;74764.63;;;-142.66;88.47
11468;BME280;5790;42.762;23.430;2024-01-27T03:26:04;74758.50;;;-142.66;87.82
11468;BME280;5790;42.762;23.430;2024-01-27T03:28:31;74756.44;;;-142.66;87.33
11468;BME280;5790;42.762;23.430;2024-01-27T03:30:58;74754.41;;;-142.66;87.42
11468;BME280;5790;42.762;23.430;2024-01-27T03:33:27;74752.38;;;-142.66;87.70
11468;BME280;5790;42.762;23.430;2024-01-27T03:35:56;74752.38;;;-142.66;88.28
11468;BME280;5790;42.762;23.430;2024-01-27T03:38:23;74744.19;;;-142.66;88.26
11468;BME280;5790;42.762;23.430;2024-01-27T03:40:50;74744.19;;;-142.66;88.63
11468;BME280;5790;42.762;23.430;2024-01-27T03:43:17;74742.16;;;-142.66;89.07
11468;BME280;5790;42.762;23.430;2024-01-27T03:45:45;74740.13;;;-142.66;89.66
11468;BME280;5790;42.762;23.430;2024-01-27T03:48:12;74740.13;;;-142.66;90.55
11468;BME280;5790;42.762;23.430;2024-01-27T03:50:40;74736.03;;;-142.66;91.68
11468;BME280;5790;42.762;23.430;2024-01-27T03:53:07;74742.16;;;-142.66;95.34
11468;BME280;5790;42.762;23.430;2024-01-27T03:55:35;74748.28;;;-142.66;98.58
11468;BME280;5790;42.762;23.430;2024-01-27T03:58:02;74750.31;;;-142.66;100.00
11468;BME280;5790;42.762;23.430;2024-01-27T04:00:29;74754.41;;;-142.66;100.00
11468;BME280;5790;42.762;23.430;2024-01-27T04:02:58;74756.44;;;-142.66;100.00
11468;BME280;5790;42.762;23.430;2024-01-27T04:05:25;74760.53;;;-142.66;100.00
11468;BME280;5790;42.762;23.430;2024-01-27T04:07:54;74764.63;;;-142.66;100.00
11468;BME280;5790;42.762;23.430;2024-01-27T04:10:21;74778.91;;;-142.66;100.00
11468;BME280;5790;42.762;23.430;2024-01-27T04:12:49;74766.66;;;-142.66;100.00
11468;BME280;5790;42.762;23.430;2024-01-27T04:15:16;74774.84;;;-142.66;100.00
11468;BME280;5790;42.762;23.430;2024-01-27T04:17:43;74766.66;;;-142.66;100.00
11468;BME280;5790;42.762;23.430;2024-01-27T04:20:11;74772.78;;;-142.66;100.00
11468;BME280;5790;42.762;23.430;2024-01-27T04:22:38;74766.66;;;-142.66;100.00
11468;BME280;5790;42.762;23.430;2024-01-27T04:25:07;74770.75;;;-142.66;100.00
11468;BME280;5790;42.762;23.430;2024-01-27T04:27:37;74772.78;;;-142.66;100.00
11468;BME280;5790;42.762;23.430;2024-01-27T04:30:06;74774.84;;;-142.66;100.00
11468;BME280;5790;42.762;23.430;2024-01-27T04:32:34;74778.91;;;-142.66;100.00
11468;BME280;5790;42.762;23.430;2024-01-27T04:35:02;74778.91;;;-142.66;100.00
11468;BME280;5790;42.762;23.430;2024-01-27T04:37:29;74780.97;;;-142.66;100.00
11468;BME280;5790;42.762;23.430;2024-01-27T04:39:56;74776.88;;;-142.66;100.00
11468;BME280;5790;42.762;23.430;2024-01-27T04:42:25;74774.84;;;-142.66;100.00
11468;BME280;5790;42.762;23.430;2024-01-27T04:44:53;74778.91;;;-142.66;100.00
11468;BME280;5790;42.762;23.430;2024-01-27T04:47:20;74774.84;;;-142.66;100.00
11468;BME280;5790;42.762;23.430;2024-01-27T04:49:47;74776.88;;;-142.66;100.00
11468;BME280;5790;42.762;23.430;2024-01-27T04:52:14;74787.09;;;-142.66;100.00
11468;BME280;5790;42.762;23.430;2024-01-27T04:54:41;74791.16;;;-142.66;100.00
11468;BME280;5790;42.762;23.430;2024-01-27T04:57:09;74791.16;;;-142.66;100.00
11468;BME280;5790;42.762;23.430;2024-01-27T04:59:37;74791.16;;;-142.66;100.00
11468;BME280;5790;42.762;23.430;2024-01-27T05:02:04;74793.22;;;-142.66;100.00
11468;BME280;5790;42.762;23.430;2024-01-27T05:04:31;74795.25;;;-142.66;100.00
11468;BME280;5790;42.762;23.430;2024-01-27T05:06:59;74795.25;;;-142.66;100.00
11468;BME280;5790;42.762;23.430;2024-01-27T05:09:26;74805.47;;;-142.66;100.00
11468;BME280;5790;42.762;23.430;2024-01-27T05:11:53;74801.38;;;-142.66;100.00
11468;BME280;5790;42.762;23.430;2024-01-27T05:14:20;74803.41;;;-142.66;100.00
11468;BME280;5790;42.762;23.430;2024-01-27T05:16:48;74805.47;;;-142.66;100.00
11468;BME280;5790;42.762;23.430;2024-01-27T05:19:15;74807.50;;;-142.66;100.00
11468;BME280;5790;42.762;23.430;2024-01-27T05:21:43;74811.59;;;-142.66;100.00
11468;BME280;5790;42.762;23.430;2024-01-27T05:24:10;74809.53;;;-142.66;100.00
11468;BME280;5790;42.762;23.430;2024-01-27T05:26:37;74811.59;;;-142.66;100.00
11468;BME280;5790;42.762;23.430;2024-01-27T05:29:04;74817.72;;;-142.66;100.00
11468;BME280;5790;42.762;23.430;2024-01-27T05:31:31;74809.53;;;-142.66;100.00
11468;BME280;5790;42.762;23.430;2024-01-27T05:33:59;74811.59;;;-142.66;100.00
11468;BME280;5790;42.762;23.430;2024-01-27T05:36:26;74813.63;;;-142.66;100.00
11468;BME280;5790;42.762;23.430;2024-01-27T05:38:53;74809.53;;;-142.66;100.00
11468;BME280;5790;42.762;23.430;2024-01-27T05:41:25;74823.84;;;-142.66;100.00
11468;BME280;5790;42.762;23.430;2024-01-27T05:43:54;74811.59;;;-142.66;100.00
11468;BME280;5790;42.762;23.430;2024-01-27T05:46:23;74813.63;;;-142.66;100.00
11468;BME280;5790;42.762;23.430;2024-01-27T05:48:50;74819.75;;;-142.66;100.00
11468;BME280;5790;42.762;23.430;2024-01-27T05:51:21;74813.63;;;-142.66;100.00
11468;BME280;5790;42.762;23.430;2024-01-27T05:53:49;74815.69;;;-142.66;100.00
11468;BME280;5790;42.762;23.430;2024-01-27T05:56:16;74815.69;;;-142.66;100.00
11468;BME280;5790;42.762;23.430;2024-01-27T05:58:44;74807.50;;;-142.66;100.00
11468;BME280;5790;42.762;23.430;2024-01-27T06:01:11;74811.59;;;-142.66;100.00
11468;BME280;5790;42.762;23.430;2024-01-27T06:03:41;74811.59;;;-142.66;100.00
11468;BME280;5790;42.762;23.430;2024-01-27T06:06:08;74811.59;;;-142.66;100.00
11468;BME280;5790;42.762;23.430;2024-01-27T06:08:37;74819.75;;;-142.66;100.00
11468;BME280;5790;42.762;23.430;2024-01-27T06:11:03;74813.63;;;-142.66;100.00
11468;BME280;5790;42.762;23.430;2024-01-27T06:13:30;74809.53;;;-142.66;100.00
11468;BME280;5790;42.762;23.430;2024-01-27T06:15:58;74819.75;;;-142.66;100.00
11468;BME280;5790;42.762;23.430;2024-01-27T06:18:25;74817.72;;;-142.66;100.00
11468;BME280;5790;42.762;23.430;2024-01-27T06:20:52;74817.72;;;-142.66;100.00
11468;BME280;5790;42.762;23.430;2024-01-27T06:23:19;74832.00;;;-142.66;100.00
11468;BME280;5790;42.762;23.430;2024-01-27T06:25:47;74823.84;;;-142.66;100.00
11468;BME280;5790;42.762;23.430;2024-01-27T06:28:14;74823.84;;;-142.66;100.00
11468;BME280;5790;42.762;23.430;2024-01-27T06:30:41;74829.97;;;-142.66;100.00
11468;BME280;5790;42.762;23.430;2024-01-27T06:33:08;74834.06;;;-142.66;100.00
11468;BME280;5790;42.762;23.430;2024-01-27T06:35:35;74838.13;;;-142.66;100.00
11468;BME280;5790;42.762;23.430;2024-01-27T06:38:03;74848.34;;;-142.66;100.00
11468;BME280;5790;42.762;23.430;2024-01-27T06:40:30;74854.47;;;-142.66;100.00
11468;BME280;5790;42.762;23.430;2024-01-27T06:42:58;74840.19;;;-142.66;100.00
11468;BME280;5790;42.762;23.430;2024-01-27T06:45:25;74834.06;;;-142.66;100.00
11468;BME280;5790;42.762;23.430;2024-01-27T06:47:52;74829.97;;;-142.66;100.00
11468;BME280;5790;42.762;23.430;2024-01-27T06:50:19;74844.25;;;-142.66;100.00
11468;BME280;5790;42.762;23.430;2024-01-27T06:52:46;74834.06;;;-142.66;100.00
11468;BME280;5790;42.762;23.430;2024-01-27T06:55:13;74836.09;;;-142.66;100.00
11468;BME280;5790;42.762;23.430;2024-01-27T06:57:40;74821.81;;;-142.66;100.00
11468;BME280;5790;42.762;23.430;2024-01-27T07:00:09;74819.75;;;-142.66;100.00
11468;BME280;5790;42.762;23.430;2024-01-27T07:02:40;74807.50;;;-142.66;100.00
11468;BME280;5790;42.762;23.430;2024-01-27T07:05:08;74813.63;;;-142.66;100.00
11468;BME280;5790;42.762;23.430;2024-01-27T07:07:35;74797.28;;;-142.66;100.00
11468;BME280;5790;42.762;23.430;2024-01-27T07:10:03;74785.03;;;-142.66;100.00
11468;BME280;5790;42.762;23.430;2024-01-27T07:12:33;74785.03;;;-142.66;100.00
11468;BME280;5790;42.762;23.430;2024-01-27T07:15:00;74766.66;;;-142.66;100.00
11468;BME280;5790;42.762;23.430;2024-01-27T07:17:29;74770.75;;;-142.66;100.00
11468;BME280;5790;42.762;23.430;2024-01-27T07:19:56;74748.28;;;-142.66;100.00
11468;BME280;5790;42.762;23.430;2024-01-27T07:22:23;74746.25;;;-142.66;100.00
11468;BME280;5790;42.762;23.430;2024-01-27T07:24:50;74734.00;;;-142.66;100.00
11468;BME280;5790;42.762;23.430;2024-01-27T07:27:17;74729.91;;;-142.66;100.00
11468;BME280;5790;42.762;23.430;2024-01-27T07:29:45;74719.69;;;-142.66;100.00
11468;BME280;5790;42.762;23.430;2024-01-27T07:32:12;74721.72;;;-142.66;100.00
11468;BME280;5790;42.762;23.430;2024-01-27T07:34:42;74717.66;;;-142.66;100.00
11468;BME280;5790;42.762;23.430;2024-01-27T07:37:09;74717.66;;;-142.66;100.00
11468;BME280;5790;42.762;23.430;2024-01-27T07:39:36;74721.72;;;-142.66;100.00
11468;BME280;5790;42.762;23.430;2024-01-27T07:42:04;74727.84;;;-142.66;100.00
11468;BME280;5790;42.762;23.430;2024-01-27T07:44:31;74734.00;;;-142.66;100.00
11468;BME280;5790;42.762;23.430;2024-01-27T07:46:59;74736.03;;;-142.66;100.00
11468;BME280;5790;42.762;23.430;2024-01-27T07:49:26;74725.81;;;-142.66;100.00
11468;BME280;5790;42.762;23.430;2024-01-27T07:51:55;74717.66;;;-142.66;100.00
11468;BME280;5790;42.762;23.430;2024-01-27T07:54:22;74699.28;;;-142.66;100.00
11468;BME280;5790;42.762;23.430;2024-01-27T07:56:49;74676.81;;;-142.66;100.00
11468;BME280;5790;42.762;23.430;2024-01-27T07:59:17;74642.09;;;-142.66;100.00
11468;BME280;5790;42.762;23.430;2024-01-27T08:01:45;74607.38;;;-142.66;100.00
11468;BME280;5790;42.762;23.430;2024-01-27T08:04:12;74574.69;;;-142.66;100.00
11468;BME280;5790;42.762;23.430;2024-01-27T08:06:48;74558.38;;;-142.66;100.00
11468;BME280;5790;42.762;23.430;2024-01-27T08:09:17;74558.38;;;-142.66;100.00
11468;BME280;5790;42.762;23.430;2024-01-27T08:11:45;74542.03;;;-142.66;100.00
11468;BME280;5790;42.762;23.430;2024-01-27T08:14:17;74535.91;;;-142.66;100.00
11468;BME280;5790;42.762;23.430;2024-01-27T08:16:44;74539.97;;;-142.66;100.00
11468;BME280;5790;42.762;23.430;2024-01-27T08:19:11;74542.03;;;-142.66;100.00
11468;BME280;5790;42.762;23.430;2024-01-27T08:21:38;74531.81;;;-142.66;100.00
11468;BME280;5790;42.762;23.430;2024-01-27T08:24:06;74529.78;;;-142.66;100.00
11468;BME280;5790;42.762;23.430;2024-01-27T08:26:34;74519.56;;;-142.66;100.00
11468;BME280;5790;42.762;23.430;2024-01-27T08:29:01;74505.28;;;-142.66;100.00
11468;BME280;5790;42.762;23.430;2024-01-27T08:31:28;74517.53;;;-142.66;100.00
11468;BME280;5790;42.762;23.430;2024-01-27T08:33:55;74513.44;;;-142.66;100.00
11468;BME280;5790;42.762;23.430;2024-01-27T08:36:22;74505.28;;;-142.66;100.00
11468;BME280;5790;42.762;23.430;2024-01-27T08:38:49;74468.50;;;-142.66;100.00
11468;BME280;5790;42.762;23.430;2024-01-27T08:41:16;74486.88;;;-142.66;100.00
11468;BME280;5790;42.762;23.430;2024-01-27T08:43:45;74478.72;;;-142.66;100.00
11468;BME280;5790;42.762;23.430;2024-01-27T08:46:12;74456.25;;;-142.66;100.00
11468;BME280;5790;42.762;23.430;2024-01-27T08:48:41;74454.22;;;-142.66;100.00
11468;BME280;5790;42.762;23.430;2024-01-27T08:51:08;74458.31;;;-142.66;100.00
11468;BME280;5790;42.762;23.430;2024-01-27T08:53:35;74486.88;;;-142.66;100.00
11468;BME280;5790;42.762;23.430;2024-01-27T08:56:03;74474.63;;;-142.66;100.00
11468;BME280;5790;42.762;23.430;2024-01-27T08:58:31;74480.75;;;-142.66;100.00
11468;BME280;5790;42.762;23.430;2024-01-27T09:01:00;74472.59;;;-142.66;100.00
11468;BME280;5790;42.762;23.430;2024-01-27T09:03:31;74456.25;;;-142.66;100.00
11468;BME280;5790;42.762;23.430;2024-01-27T09:05:58;74429.72;;;-142.66;100.00
11468;BME280;5790;42.762;23.430;2024-01-27T09:08:25;74431.75;;;-142.66;100.00
11468;BME280;5790;42.762;23.430;2024-01-27T09:10:52;74425.63;;;-142.66;100.00
11468;BME280;5790;42.762;23.430;2024-01-27T09:13:19;74435.84;;;-142.66;100.00
11468;BME280;5790;42.762;23.430;2024-01-27T09:15:46;74419.50;;;-142.66;100.00
11468;BME280;5790;42.762;23.430;2024-01-27T09:18:15;74415.41;;;-142.66;100.00
11468;BME280;5790;42.762;23.430;2024-01-27T09:20:43;74401.13;;;-142.66;100.00
11468;BME280;5790;42.762;23.430;2024-01-27T09:23:10;74407.25;;;-142.66;100.00
11468;BME280;5790;42.762;23.430;2024-01-27T09:25:37;74427.69;;;-142.66;100.00
11468;BME280;5790;42.762;23.430;2024-01-27T09:28:05;74439.94;;;-142.66;100.00
11468;BME280;5790;42.762;23.430;2024-01-27T09:30:32;74399.09;;;-142.66;100.00
11468;BME280;5790;42.762;23.430;2024-01-27T09:32:59;74411.34;;;-142.66;100.00
11468;BME280;5790;42.762;23.430;2024-01-27T09:35:27;74431.75;;;-142.66;100.00
11468;BME280;5790;42.762;23.430;2024-01-27T09:37:55;74464.44;;;-142.66;100.00
11468;BME280;5790;42.762;23.430;2024-01-27T09:40:22;74474.63;;;-142.66;100.00
11468;BME280;5790;42.762;23.430;2024-01-27T09:42:51;74484.84;;;-142.66;100.00
11468;BME280;5790;42.762;23.430;2024-01-27T09:45:19;74505.28;;;-142.66;100.00
11468;BME280;5790;42.762;23.430;2024-01-27T09:47:48;74525.69;;;-142.66;100.00
11468;BME280;5790;42.762;23.430;2024-01-27T09:50:17;74533.84;;;-142.66;100.00
11468;BME280;5790;42.762;23.430;2024-01-27T09:52:46;74546.09;;;-142.66;100.00
11468;BME280;5790;42.762;23.430;2024-01-27T09:55:13;74552.25;;;-142.66;100.00
11468;BME280;5790;42.762;23.430;2024-01-27T09:57:40;74544.06;;;-142.66;100.00
11468;BME280;5790;42.762;23.430;2024-01-27T10:00:10;74556.31;;;-142.66;100.00
11468;BME280;5790;42.762;23.430;2024-01-27T10:02:39;74558.38;;;-142.66;100.00
11468;BME280;5790;42.762;23.430;2024-01-27T10:05:08;74560.41;;;-142.66;100.00
11468;BME280;5790;42.762;23.430;2024-01-27T10:07:35;74568.56;;;-142.66;100.00
11468;BME280;5790;42.762;23.430;2024-01-27T10:10:05;74550.19;;;-142.66;100.00
11468;BME280;5790;42.762;23.430;2024-01-27T10:12:33;74554.28;;;-142.66;100.00
11468;BME280;5790;42.762;23.430;2024-01-27T10:15:05;74564.50;;;-142.66;100.00
11468;BME280;5790;42.762;23.430;2024-01-27T10:17:32;74548.16;;;-142.66;100.00
11468;BME280;5790;42.762;23.430;2024-01-27T10:20:02;74556.31;;;-142.66;100.00
11468;BME280;5790;42.762;23.430;2024-01-27T10:22:37;74552.25;;;-142.66;100.00
11468;BME280;5790;42.762;23.430;2024-01-27T10:25:07;74539.97;;;-142.66;100.00
11468;BME280;5790;42.762;23.430;2024-01-27T10:27:35;74544.06;;;-142.66;100.00
11468;BME280;5790;42.762;23.430;2024-01-27T10:30:03;74546.09;;;-142.66;100.00
11468;BME280;5790;42.762;23.430;2024-01-27T10:32:30;74539.97;;;-142.66;100.00
11468;BME280;5790;42.762;23.430;2024-01-27T10:35:04;74539.97;;;-142.66;100.00
11468;BME280;5790;42.762;23.430;2024-01-27T10:37:31;74535.91;;;-142.66;100.00
11468;BME280;5790;42.762;23.430;2024-01-27T10:40:06;74552.25;;;-142.66;100.00
11468;BME280;5790;42.762;23.430;2024-01-27T10:42:35;74521.59;;;-142.66;100.00
11468;BME280;5790;42.762;23.430;2024-01-27T10:45:03;74495.06;;;-142.66;100.00
11468;BME280;5790;42.762;23.430;2024-01-27T10:47:32;74450.13;;;-142.66;100.00
11468;BME280;5790;42.762;23.430;2024-01-27T10:50:00;74448.09;;;-142.66;99.40
11468;BME280;5790;42.762;23.430;2024-01-27T10:52:29;74435.84;;;-142.66;97.91
11468;BME280;5790;42.762;23.430;2024-01-27T10:54:59;74425.63;;;-142.66;98.35
11468;BME280;5790;42.762;23.430;2024-01-27T10:57:30;74407.25;;;-142.66;98.70
11468;BME280;5790;42.762;23.430;2024-01-27T11:00:00;74407.25;;;-142.66;97.21
11468;BME280;5790;42.762;23.430;2024-01-27T11:02:33;74452.19;;;-142.66;95.79
11468;BME280;5790;42.762;23.430;2024-01-27T11:05:02;74439.94;;;-142.66;97.35
11468;BME280;5790;42.762;23.430;2024-01-27T11:07:32;74439.94;;;-142.66;97.54
11468;BME280;5790;42.762;23.430;2024-01-27T11:10:00;74446.06;;;-142.66;98.00
11468;BME280;5790;42.762;23.430;2024-01-27T11:12:27;74482.81;;;-142.66;96.89
11468;BME280;5790;42.762;23.430;2024-01-27T11:14:56;74470.56;;;-142.66;97.57
11468;BME280;5790;42.762;23.430;2024-01-27T11:17:24;74466.47;;;-142.66;97.71
11468;BME280;5790;42.762;23.430;2024-01-27T11:19:55;74501.19;;;-142.66;98.08
11468;BME280;5790;42.762;23.430;2024-01-27T11:22:25;74513.44;;;-142.66;98.39
11468;BME280;5790;42.762;23.430;2024-01-27T11:24:53;74525.69;;;-142.66;98.91
11468;BME280;5790;42.762;23.430;2024-01-27T11:27:26;74525.69;;;-142.66;99.07
11468;BME280;5790;42.762;23.430;2024-01-27T11:29:56;74544.06;;;-142.66;99.23
11468;BME280;5790;42.762;23.430;2024-01-27T11:32:23;74537.94;;;-142.66;99.23
11468;BME280;5790;42.762;23.430;2024-01-27T11:34:52;74546.09;;;-142.66;100.00
11468;BME280;5790;42.762;23.430;2024-01-27T11:37:20;74548.16;;;-142.66;100.00
11468;BME280;5790;42.762;23.430;2024-01-27T11:39:50;74550.19;;;-142.66;99.91
11468;BME280;5790;42.762;23.430;2024-01-27T11:42:18;74560.41;;;-142.66;99.79
11468;BME280;5790;42.762;23.430;2024-01-27T11:44:46;74564.50;;;-142.66;100.00
11468;BME280;5790;42.762;23.430;2024-01-27T11:47:18;74574.69;;;-142.66;99.94
11468;BME280;5790;42.762;23.430;2024-01-27T11:49:51;74572.66;;;-142.66;100.00
11468;BME280;5790;42.762;23.430;2024-01-27T11:52:19;74572.66;;;-142.66;99.45
11468;BME280;5790;42.762;23.430;2024-01-27T11:54:45;74578.78;;;-142.66;100.00
11468;BME280;5790;42.762;23.430;2024-01-27T11:57:12;74558.38;;;-142.66;100.00
11468;BME280;5790;42.762;23.430;2024-01-27T11:59:39;74572.66;;;-142.66;99.36
11468;BME280;5790;42.762;23.430;2024-01-27T12:02:06;74570.63;;;-142.66;100.00
11468;BME280;5790;42.762;23.430;2024-01-27T12:04:35;74578.78;;;-142.66;98.77
11468;BME280;5790;42.762;23.430;2024-01-27T12:07:02;74582.88;;;-142.66;99.16
11468;BME280;5790;42.762;23.430;2024-01-27T12:09:30;74595.13;;;-142.66;99.29
11468;BME280;5790;42.762;23.430;2024-01-27T12:11:57;74589.00;;;-142.66;99.79
11468;BME280;5790;42.762;23.430;2024-01-27T12:14:24;74580.81;;;-142.66;99.16
11468;BME280;5790;42.762;23.430;2024-01-27T12:16:51;74595.13;;;-142.66;98.15
11468;BME280;5790;42.762;23.430;2024-01-27T12:19:19;74603.28;;;-142.66;98.88
11468;BME280;5790;42.762;23.430;2024-01-27T12:21:50;74603.28;;;-142.66;98.82
11468;BME280;5790;42.762;23.430;2024-01-27T12:24:17;74611.47;;;-142.66;97.03
11468;BME280;5790;42.762;23.430;2024-01-27T12:26:45;74607.38;;;-142.66;97.19
11468;BME280;5790;42.762;23.430;2024-01-27T12:29:12;74625.75;;;-142.66;96.23
11468;BME280;5790;42.762;23.430;2024-01-27T12:31:39;74619.63;;;-142.66;95.69
11468;BME280;5790;42.762;23.430;2024-01-27T12:34:07;74621.66;;;-142.66;95.64
11468;BME280;5790;42.762;23.430;2024-01-27T12:36:40;74615.53;;;-142.66;95.67
11468;BME280;5790;42.762;23.430;2024-01-27T12:39:09;74613.50;;;-142.66;95.63